Currently 76°F in Moreno Valley, California, USA
76°F
77°F / 58°F
8 mph W
0.00"
Sunday, May 20, 2018 4:06 PM PDT

Moreno Valley, California Weather Summary
Last 36 Hours

Temperature Winds Hourly Humidity Dewpoint
Time Report Norm Report Norm Max Gusts Precip. Rpt. Norm Rpt. Norm Pressure
1Sun 04:06 PM  75.9°F  78°F  8 mph W  7 mph  12 mph  0.00"  59%  39%  60°F  50°F  28.00"
Sun 04:00 PM  75.5°F  78°F  5 mph SW  7 mph  12 mph  0.00"  59%  39%  60°F  50°F  28.00"
2Sun 03:39 PM  76.5°F  78°F  8 mph NW  6 mph  11 mph  ----  57%  39%  60°F  50°F  28.01"
Sun 03:00 PM  75.5°F  78°F  6 mph SW  6 mph  15 mph  0.00"  58%  38%  59°F  50°F  28.03"
Sun 02:00 PM  74.5°F  78°F  7 mph W  6 mph  13 mph  0.00"  61%  39%  60°F  50°F  28.04"
Sun 01:00 PM  71.9°F  76°F  5 mph W  5 mph  12 mph  0.00"  67%  43%  60°F  51°F  28.05"
Sun 12:00 PM  67.5°F  73°F  3 mph SW  5 mph  8 mph  0.00"  75%  48%  59°F  52°F  28.07"
Sun 11:00 AM  64.5°F  70°F  1 mph NW  4 mph  5 mph  0.00"  84%  55%  59°F  53°F  28.07"
Sun 10:00 AM  61.1°F  67°F  calm  3 mph  6 mph  0.00"  91%  62%  58°F  53°F  28.08"
Sun 09:00 AM  58.9°F  64°F  calm  2 mph  6 mph  0.00"  96%  71%  58°F  54°F  28.08"
Sun 08:00 AM  58.2°F  61°F  calm  2 mph  5 mph  0.00"  96%  79%  57°F  54°F  28.07"
Sun 07:00 AM  58.0°F  57°F  1 mph S  2 mph  5 mph  0.00"  96%  85%  57°F  53°F  28.05"
3Sun 06:41 AM  57.8°F  56°F  2 mph NW  1 mph  5 mph  ----  96%  87%  57°F  52°F  28.05"
Sun 06:00 AM  58.1°F  55°F  calm  2 mph  5 mph  0.00"  96%  87%  57°F  51°F  28.04"
Sun 05:00 AM  57.9°F  55°F  2 mph SE  1 mph  5 mph  0.00"  96%  87%  57°F  51°F  28.02"
Sun 04:00 AM  58.1°F  56°F  calm  1 mph  5 mph  0.00"  96%  86%  57°F  51°F  28.02"
Sun 03:00 AM  58.5°F  56°F  3 mph SE  1 mph  5 mph  0.00"  95%  86%  57°F  51°F  28.02"
Sun 02:00 AM  58.9°F  56°F  1 mph W  1 mph  5 mph  0.00"  95%  84%  57°F  52°F  28.02"
Sun 01:00 AM  59.2°F  57°F  calm  1 mph  6 mph  0.00"  95%  83%  58°F  52°F  28.02"
Sun 12:00 AM  58.8°F  58°F  2 mph W  2 mph  6 mph  0.00"  95%  80%  57°F  52°F  28.04"
Sat 11:00 PM  57.9°F  60°F  1 mph NE  2 mph  3 mph  0.00"  95%  77%  56°F  52°F  28.04"
Sat 10:00 PM  58.5°F  61°F  calm  2 mph  8 mph  0.00"  93%  72%  56°F  52°F  28.04"
Sat 09:00 PM  59.7°F  64°F  5 mph NW  3 mph  10 mph  0.00"  90%  67%  57°F  52°F  28.02"
Sat 08:00 PM  62.7°F  66°F  3 mph NW  4 mph  13 mph  0.00"  84%  60%  58°F  51°F  28.01"
Sat 07:00 PM  67.0°F  70°F  6 mph W  5 mph  12 mph  0.00"  75%  52%  58°F  51°F  28.00"
Sat 06:00 PM  70.6°F  74°F  8 mph W  6 mph  13 mph  0.00"  66%  45%  58°F  51°F  27.99"
Sat 05:00 PM  73.6°F  77°F  6 mph W  7 mph  13 mph  0.00"  60%  40%  59°F  50°F  27.99"
Sat 04:00 PM  75.5°F  79°F  6 mph SW  7 mph  12 mph  0.00"  57%  38%  59°F  50°F  27.99"
Sat 03:00 PM  73.8°F  79°F  5 mph S  6 mph  11 mph  0.00"  59%  37%  58°F  50°F  28.02"
Sat 02:00 PM  71.8°F  78°F  7 mph W  6 mph  12 mph  0.00"  64%  38%  58°F  50°F  28.04"
Sat 01:00 PM  69.0°F  76°F  3 mph W  5 mph  10 mph  0.00"  71%  41%  59°F  50°F  28.05"
Sat 12:00 PM  64.1°F  74°F  5 mph W  5 mph  7 mph  0.00"  83%  46%  59°F  52°F  28.06"
Sat 11:00 AM  59.0°F  71°F  2 mph SW  4 mph  5 mph  0.00"  92%  53%  57°F  53°F  28.07"
Sat 10:00 AM  57.3°F  68°F  calm  3 mph  4 mph  0.00"  95%  60%  56°F  53°F  28.07"
Sat 09:00 AM  55.8°F  65°F  calm  2 mph  4 mph  0.00"  97%  69%  55°F  54°F  28.07"
Sat 08:00 AM  54.8°F  61°F  calm  2 mph  none  0.00"  97%  78%  54°F  54°F  28.06"
Sat 07:00 AM  54.1°F  57°F  calm  1 mph  5 mph  0.00"  97%  84%  53°F  52°F  28.06"
Sat 06:00 AM  53.8°F  55°F  calm  1 mph  5 mph  0.00"  97%  85%  53°F  51°F  28.04"
Sat 05:00 AM  53.5°F  55°F  calm  1 mph  5 mph  0.00"  97%  85%  53°F  51°F  28.04"

  1. Current weather data. No green row appears if the current weather data is also the high or low for the current day.
  2. High temperature for the current day.
  3. Low temperature for the current day.

The Moreno Valley, California weather pages are a service of WeatherCurrents. Moreno Valley is located in Southern California's Inland Empire, east of Riverside and north of Perris, along the State Route 60 freeway.
Copyright ©Sun May 20 16:07:26 PDT 2018  WeatherCurrents. All rights reserved. - Submit questions and comments - Privacy Policy

This page automatically refreshes every 10 minutes.